Terminal Aerodrome Forecast
Issued by NWS Pittsburgh, PA

Current Version | Previous Version | Text Only | Print | Product List | Glossary Off
Versions: 1 2 3 4 5 6 7 8 9 10 11 12 13 14 15 16 17 18 19 20 21 22 23 24 25 26 27 28 29 30 31 32 33 34

000
FTUS41 KPBZ 011456 AAA
TAFPIT
TAF AMD
KPIT 011456Z 0115/0218 24008KT P6SM VCSH BKN010 OVC016
     FM011700 21006KT P6SM VCTS BKN030CB
     FM020300 VRB03KT 4SM -SHRA BR OVC010
     FM021400 33005KT P6SM OVC015=

USA.gov is the U.S. government's official web portal to all federal, state and local government web resources and services.